Time;durP1;ratioP1;P1;durP2;ratioP2;P2;SDS_P1;SDS_P2;PMS_P1;PMS_P2;Temp;Humidity;BMP_temperature;BMP_pressure;BME280_temperature;BME280_humidity;BME280_pressure;Samples;Min_cycle;Max_cycle;Signal;HPM_P1;HPM_P2
2023/06/03 00:00:52;;;;;;;15.38;6.82;;;;;;;;;;5043873;28;25093;-70
2023/06/03 00:03:20;;;;;;;12.38;6.10;;;;;;;;;;5038734;28;25062;-71
2023/06/03 00:05:46;;;;;;;15.32;5.40;;;;;;;;;;5040688;28;25090;-70
2023/06/03 00:08:12;;;;;;;8.10;4.75;;;;;;;;;;5040988;28;25055;-72
2023/06/03 00:10:38;;;;;;;9.27;5.80;;;;;;;;;;5041572;28;25093;-71
2023/06/03 00:13:04;;;;;;;8.73;5.30;;;;;;;;;;5038931;28;25139;-71
2023/06/03 00:15:30;;;;;;;9.15;5.03;;;;;;;;;;5027614;28;25052;-71
2023/06/03 00:17:56;;;;;;;12.80;5.88;;;;;;;;;;5043992;28;25092;-73
2023/06/03 00:20:24;;;;;;;12.18;6.03;;;;;;;;;;5045705;28;25059;-71
2023/06/03 00:22:51;;;;;;;12.98;5.13;;;;;;;;;;5042137;28;25047;-70
2023/06/03 00:25:16;;;;;;;9.07;5.55;;;;;;;;;;5039787;28;25055;-72
2023/06/03 00:27:43;;;;;;;13.82;5.25;;;;;;;;;;5041942;28;25056;-71
2023/06/03 00:30:10;;;;;;;8.98;5.15;;;;;;;;;;5039830;28;25085;-72
2023/06/03 00:32:36;;;;;;;18.17;6.25;;;;;;;;;;5030458;28;25150;-71
2023/06/03 00:35:02;;;;;;;14.52;5.43;;;;;;;;;;5041682;28;25062;-71
2023/06/03 00:37:28;;;;;;;7.50;4.88;;;;;;;;;;5041737;28;25103;-71
2023/06/03 00:39:54;;;;;;;10.35;4.95;;;;;;;;;;5044019;28;25096;-71
2023/06/03 00:42:20;;;;;;;9.27;4.70;;;;;;;;;;5043900;28;25117;-71
2023/06/03 00:44:46;;;;;;;9.25;4.97;;;;;;;;;;5043242;28;25056;-70
2023/06/03 00:47:12;;;;;;;12.57;5.32;;;;;;;;;;5041056;28;25124;-72
2023/06/03 00:49:38;;;;;;;7.32;4.60;;;;;;;;;;5041441;28;25072;-72
2023/06/03 00:52:06;;;;;;;12.35;5.15;;;;;;;;;;5042269;28;25060;-71
2023/06/03 00:54:33;;;;;;;8.10;4.75;;;;;;;;;;5048872;28;25072;-71
2023/06/03 00:56:59;;;;;;;12.30;4.97;;;;;;;;;;5044394;28;25043;-72
2023/06/03 00:59:25;;;;;;;9.05;5.65;;;;;;;;;;5041389;28;25108;-71
2023/06/03 01:01:51;;;;;;;11.60;5.15;;;;;;;;;;5039501;28;25144;-72
2023/06/03 01:04:25;;;;;;;13.35;5.28;;;;;;;;;;5045413;28;25054;-70
2023/06/03 01:07:07;;;;;;;9.90;5.07;;;;;;;;;;5059814;28;25074;-72
2023/06/03 01:09:56;;;;;;;9.02;4.55;;;;;;;;;;5057334;28;25060;-72
2023/06/03 01:12:33;;;;;;;9.25;5.18;;;;;;;;;;5032898;28;25057;-70
2023/06/03 01:15:01;;;;;;;10.63;5.18;;;;;;;;;;5041561;28;25075;-71
2023/06/03 01:17:33;;;;;;;9.20;5.38;;;;;;;;;;5057924;28;25083;-72
2023/06/03 01:19:59;;;;;;;8.95;5.20;;;;;;;;;;5059432;28;25055;-71
2023/06/03 01:22:26;;;;;;;9.23;5.00;;;;;;;;;;5054036;28;25073;-73
2023/06/03 01:25:01;;;;;;;8.15;4.60;;;;;;;;;;5039259;28;25047;-72
2023/06/03 01:27:28;;;;;;;11.85;4.93;;;;;;;;;;5039678;28;25058;-72
2023/06/03 01:29:54;;;;;;;8.45;4.15;;;;;;;;;;5039892;28;25072;-72
2023/06/03 01:32:20;;;;;;;9.07;4.78;;;;;;;;;;5039467;28;25053;-72
2023/06/03 01:34:47;;;;;;;8.13;4.40;;;;;;;;;;5038699;28;25055;-72
2023/06/03 01:37:13;;;;;;;10.73;5.75;;;;;;;;;;5038009;28;25078;-70
2023/06/03 01:39:40;;;;;;;12.70;5.65;;;;;;;;;;5038667;28;25109;-69
2023/06/03 01:42:10;;;;;;;7.72;4.60;;;;;;;;;;5038610;28;25107;-71
2023/06/03 01:44:36;;;;;;;12.98;5.97;;;;;;;;;;5038887;28;25132;-71
2023/06/03 01:47:02;;;;;;;8.80;4.55;;;;;;;;;;5039765;28;25080;-71
2023/06/03 01:49:31;;;;;;;10.93;5.45;;;;;;;;;;5035100;28;25065;-71
2023/06/03 01:51:58;;;;;;;9.43;5.18;;;;;;;;;;5042758;28;25097;-70
2023/06/03 01:54:25;;;;;;;10.88;4.93;;;;;;;;;;5058692;28;25189;-71
2023/06/03 01:56:52;;;;;;;9.02;5.40;;;;;;;;;;5058662;28;25059;-70
2023/06/03 01:59:20;;;;;;;10.30;5.22;;;;;;;;;;5060853;28;25149;-71
2023/06/03 02:01:47;;;;;;;8.15;5.32;;;;;;;;;;5059736;28;25058;-71
2023/06/03 02:04:13;;;;;;;8.35;5.30;;;;;;;;;;5049067;28;25075;-70
2023/06/03 02:06:39;;;;;;;10.63;4.88;;;;;;;;;;5040415;28;25100;-71
2023/06/03 02:09:05;;;;;;;11.20;5.13;;;;;;;;;;5041372;28;25058;-72
2023/06/03 02:11:31;;;;;;;10.43;5.65;;;;;;;;;;5039147;28;25057;-71
2023/06/03 02:13:57;;;;;;;8.60;4.95;;;;;;;;;;5053694;28;25085;-72
2023/06/03 02:16:23;;;;;;;12.65;6.28;;;;;;;;;;5028204;28;25089;-71
2023/06/03 02:18:49;;;;;;;10.25;4.93;;;;;;;;;;5054666;28;25074;-71
2023/06/03 02:21:16;;;;;;;11.43;5.60;;;;;;;;;;5041423;28;25161;-73
2023/06/03 02:23:42;;;;;;;12.95;5.93;;;;;;;;;;5031063;28;25097;-72
2023/06/03 02:26:13;;;;;;;8.82;4.95;;;;;;;;;;5056881;28;25154;-71
2023/06/03 02:28:39;;;;;;;8.70;5.28;;;;;;;;;;5058621;28;25145;-71
2023/06/03 02:31:05;;;;;;;11.50;5.00;;;;;;;;;;5059117;28;25060;-71
2023/06/03 02:33:31;;;;;;;12.07;4.90;;;;;;;;;;5057932;28;25068;-71
2023/06/03 02:35:57;;;;;;;12.73;5.88;;;;;;;;;;5062520;28;25057;-70
2023/06/03 02:38:23;;;;;;;10.80;6.20;;;;;;;;;;5057991;28;25059;-71
2023/06/03 02:40:49;;;;;;;10.35;5.43;;;;;;;;;;5059161;28;25053;-71
2023/06/03 02:43:15;;;;;;;7.10;5.10;;;;;;;;;;5059713;28;25127;-71
2023/06/03 02:45:41;;;;;;;16.95;6.00;;;;;;;;;;5060469;28;25173;-71
2023/06/03 02:48:07;;;;;;;10.57;5.47;;;;;;;;;;5060546;28;25060;-70
2023/06/03 02:50:33;;;;;;;11.98;5.72;;;;;;;;;;5074415;28;25055;-71
2023/06/03 02:52:59;;;;;;;9.55;5.55;;;;;;;;;;5078713;28;25061;-71
2023/06/03 02:55:27;;;;;;;13.52;5.85;;;;;;;;;;5075284;28;25109;-71
2023/06/03 02:57:53;;;;;;;9.20;5.78;;;;;;;;;;5061591;28;25054;-71
2023/06/03 03:00:19;;;;;;;9.60;6.07;;;;;;;;;;5060415;28;25162;-72
2023/06/03 03:02:45;;;;;;;9.48;5.15;;;;;;;;;;5045215;28;25071;-71
2023/06/03 03:05:11;;;;;;;8.77;6.07;;;;;;;;;;5070144;28;25083;-69
2023/06/03 03:07:37;;;;;;;12.45;5.47;;;;;;;;;;5064517;28;25075;-71
2023/06/03 03:10:04;;;;;;;12.07;5.45;;;;;;;;;;5051673;28;25125;-70
2023/06/03 03:12:30;;;;;;;12.63;5.68;;;;;;;;;;5045954;28;25059;-70
2023/06/03 03:14:56;;;;;;;8.90;5.15;;;;;;;;;;5057935;28;25124;-72
2023/06/03 03:17:22;;;;;;;9.32;5.22;;;;;;;;;;5058839;28;25155;-71
2023/06/03 03:19:48;;;;;;;9.98;5.68;;;;;;;;;;5057684;28;25071;-70
2023/06/03 03:22:14;;;;;;;11.32;5.57;;;;;;;;;;5042985;28;25129;-71
2023/06/03 03:24:42;;;;;;;10.20;5.47;;;;;;;;;;5061023;28;25069;-70
2023/06/03 03:27:08;;;;;;;13.32;5.65;;;;;;;;;;5060894;28;25059;-71
2023/06/03 03:29:34;;;;;;;12.35;5.47;;;;;;;;;;5063432;28;25148;-72
2023/06/03 03:32:05;;;;;;;11.00;6.68;;;;;;;;;;5062861;28;25065;-71
2023/06/03 03:34:31;;;;;;;12.15;5.57;;;;;;;;;;5062263;28;25142;-72
2023/06/03 03:36:57;;;;;;;7.47;5.53;;;;;;;;;;5060434;28;25072;-71
2023/06/03 03:39:23;;;;;;;11.55;6.10;;;;;;;;;;5057743;28;25175;-69
2023/06/03 03:41:49;;;;;;;9.95;5.53;;;;;;;;;;5060714;28;25170;-71
2023/06/03 03:44:15;;;;;;;13.70;7.60;;;;;;;;;;5060324;28;25131;-71
2023/06/03 03:46:47;;;;;;;11.63;6.22;;;;;;;;;;5043130;28;25059;-72
2023/06/03 03:49:18;;;;;;;15.07;5.90;;;;;;;;;;5056990;28;25071;-71
2023/06/03 03:51:44;;;;;;;12.38;6.35;;;;;;;;;;5060072;28;25066;-70
2023/06/03 03:54:10;;;;;;;11.10;5.45;;;;;;;;;;5058538;28;25058;-71
2023/06/03 03:56:36;;;;;;;10.63;5.32;;;;;;;;;;5059922;28;25069;-71
2023/06/03 03:59:03;;;;;;;10.45;5.57;;;;;;;;;;5057940;28;25129;-72
2023/06/03 04:01:29;;;;;;;10.57;6.22;;;;;;;;;;5058484;28;25108;-71
2023/06/03 04:03:55;;;;;;;9.32;5.35;;;;;;;;;;5056442;28;25063;-71
2023/06/03 04:06:36;;;;;;;13.05;5.60;;;;;;;;;;5057822;28;25185;-71
2023/06/03 04:09:04;;;;;;;10.45;5.95;;;;;;;;;;5058163;28;25082;-71
2023/06/03 04:11:36;;;;;;;8.25;5.38;;;;;;;;;;5058476;28;25070;-72
2023/06/03 04:14:03;;;;;;;9.50;5.38;;;;;;;;;;5058577;28;25081;-72
2023/06/03 04:16:31;;;;;;;13.40;5.78;;;;;;;;;;5063873;28;25067;-69
2023/06/03 04:18:57;;;;;;;9.75;6.38;;;;;;;;;;5068968;28;25049;-71
2023/06/03 04:21:23;;;;;;;8.57;5.60;;;;;;;;;;5071376;28;25140;-70
2023/06/03 04:23:49;;;;;;;7.70;5.38;;;;;;;;;;5067278;28;25071;-71
2023/06/03 04:26:16;;;;;;;9.18;6.05;;;;;;;;;;5070480;28;25068;-72
2023/06/03 04:28:41;;;;;;;8.32;4.70;;;;;;;;;;5071316;28;25158;-70
2023/06/03 04:31:07;;;;;;;9.77;5.32;;;;;;;;;;5067134;28;25061;-71
2023/06/03 04:33:34;;;;;;;14.55;5.93;;;;;;;;;;5064020;28;25140;-70
2023/06/03 04:36:00;;;;;;;8.93;5.72;;;;;;;;;;5064711;28;25045;-70
2023/06/03 04:38:26;;;;;;;6.07;5.00;;;;;;;;;;5057057;28;25052;-70
2023/06/03 04:40:53;;;;;;;6.50;4.78;;;;;;;;;;5057248;28;25066;-70
2023/06/03 04:43:19;;;;;;;10.15;5.43;;;;;;;;;;5056151;28;25060;-72
2023/06/03 04:45:45;;;;;;;13.30;5.88;;;;;;;;;;5055681;28;25067;-70
2023/06/03 04:48:14;;;;;;;9.20;4.97;;;;;;;;;;5040421;28;25082;-71
2023/06/03 04:50:44;;;;;;;8.40;4.93;;;;;;;;;;5039424;28;25054;-70
2023/06/03 04:53:11;;;;;;;7.10;4.53;;;;;;;;;;5037842;28;25057;-70
2023/06/03 04:55:37;;;;;;;15.10;5.07;;;;;;;;;;5043377;28;25073;-71
2023/06/03 04:58:05;;;;;;;7.47;4.70;;;;;;;;;;5038786;28;25081;-72
2023/06/03 05:00:32;;;;;;;12.57;5.13;;;;;;;;;;5037672;28;25144;-72
2023/06/03 05:02:59;;;;;;;10.35;5.00;;;;;;;;;;5037124;28;25064;-70
2023/06/03 05:05:26;;;;;;;8.85;4.72;;;;;;;;;;5041477;28;25072;-71
2023/06/03 05:07:52;;;;;;;7.03;4.88;;;;;;;;;;5038277;28;25124;-71
2023/06/03 05:10:19;;;;;;;7.53;3.95;;;;;;;;;;5039930;28;25110;-73
2023/06/03 05:12:45;;;;;;;6.43;4.85;;;;;;;;;;5041484;28;25079;-70
2023/06/03 05:15:12;;;;;;;9.20;3.90;;;;;;;;;;5040243;28;25154;-71
2023/06/03 05:17:40;;;;;;;7.93;4.38;;;;;;;;;;5040250;28;25068;-71
2023/06/03 05:20:08;;;;;;;8.35;4.40;;;;;;;;;;5038211;28;25077;-70
2023/06/03 05:22:33;;;;;;;6.63;4.68;;;;;;;;;;5037788;28;25058;-69
2023/06/03 05:24:59;;;;;;;10.18;4.72;;;;;;;;;;5038736;28;25068;-71
2023/06/03 05:27:25;;;;;;;11.80;3.78;;;;;;;;;;5036230;28;25066;-70
2023/06/03 05:29:51;;;;;;;9.20;4.53;;;;;;;;;;5039887;28;25104;-71
2023/06/03 05:32:18;;;;;;;10.25;4.10;;;;;;;;;;5035386;28;25106;-71
2023/06/03 05:34:44;;;;;;;9.07;4.35;;;;;;;;;;5037301;28;25102;-71
2023/06/03 05:37:10;;;;;;;12.40;4.05;;;;;;;;;;5035808;28;25163;-72
2023/06/03 05:39:36;;;;;;;9.57;3.90;;;;;;;;;;5037833;28;25073;-72
2023/06/03 05:42:02;;;;;;;8.27;4.25;;;;;;;;;;5035244;28;25086;-71
2023/06/03 05:44:28;;;;;;;8.30;4.38;;;;;;;;;;5038121;28;25070;-72
2023/06/03 05:46:54;;;;;;;4.72;3.72;;;;;;;;;;5037497;28;25075;-72
2023/06/03 05:49:20;;;;;;;8.02;4.25;;;;;;;;;;5035601;28;25063;-71
2023/06/03 05:51:46;;;;;;;7.75;4.10;;;;;;;;;;5037521;28;25069;-70
2023/06/03 05:54:13;;;;;;;7.25;3.25;;;;;;;;;;5037719;28;25055;-72
2023/06/03 05:56:39;;;;;;;5.47;3.65;;;;;;;;;;5038820;28;25062;-73
2023/06/03 05:59:05;;;;;;;8.63;3.67;;;;;;;;;;5036068;28;25072;-71
2023/06/03 06:01:33;;;;;;;9.63;3.85;;;;;;;;;;5037536;28;25067;-72
2023/06/03 06:03:59;;;;;;;7.25;3.83;;;;;;;;;;5034416;28;25076;-72
2023/06/03 06:06:25;;;;;;;8.65;3.53;;;;;;;;;;5037815;28;25050;-72
2023/06/03 06:08:51;;;;;;;7.43;3.90;;;;;;;;;;5036522;28;25056;-72
2023/06/03 06:11:17;;;;;;;7.47;3.60;;;;;;;;;;5023263;28;25077;-73
2023/06/03 06:13:43;;;;;;;6.57;3.45;;;;;;;;;;5036770;28;25109;-72
2023/06/03 06:16:09;;;;;;;5.95;3.60;;;;;;;;;;5027764;28;25084;-70
2023/06/03 06:18:35;;;;;;;8.95;3.47;;;;;;;;;;5050270;28;25051;-70
2023/06/03 06:21:02;;;;;;;7.75;2.67;;;;;;;;;;5047917;28;25129;-73
2023/06/03 06:23:28;;;;;;;6.50;2.78;;;;;;;;;;5035219;28;25069;-72
2023/06/03 06:25:55;;;;;;;4.47;2.92;;;;;;;;;;5056541;28;25061;-71
2023/06/03 06:28:22;;;;;;;5.30;2.78;;;;;;;;;;5034406;28;25078;-72
2023/06/03 06:30:48;;;;;;;4.78;2.63;;;;;;;;;;5033032;28;25092;-72
2023/06/03 06:33:16;;;;;;;5.05;2.75;;;;;;;;;;5032819;28;25060;-72
2023/06/03 06:35:42;;;;;;;5.60;3.47;;;;;;;;;;5035156;28;25135;-74
2023/06/03 06:38:08;;;;;;;7.75;3.58;;;;;;;;;;5036971;28;25071;-73
2023/06/03 06:40:35;;;;;;;4.47;2.92;;;;;;;;;;5035938;28;25099;-71
2023/06/03 06:43:01;;;;;;;4.40;2.63;;;;;;;;;;5033583;28;25081;-74
2023/06/03 06:45:29;;;;;;;5.20;2.58;;;;;;;;;;5037317;28;25179;-74
2023/06/03 06:48:03;;;;;;;7.38;2.50;;;;;;;;;;5037406;28;25048;-71
2023/06/03 06:50:34;;;;;;;3.40;2.70;;;;;;;;;;5035942;28;25046;-72
2023/06/03 06:53:01;;;;;;;9.13;2.60;;;;;;;;;;5034437;28;25108;-71
2023/06/03 06:55:33;;;;;;;5.35;2.60;;;;;;;;;;5033851;28;25090;-75
2023/06/03 06:57:58;;;;;;;6.97;2.72;;;;;;;;;;5035349;28;25044;-72
2023/06/03 07:00:24;;;;;;;4.15;2.38;;;;;;;;;;5038533;28;25069;-72
2023/06/03 07:02:50;;;;;;;3.88;2.25;;;;;;;;;;5041594;28;25066;-73
2023/06/03 07:05:16;;;;;;;5.55;2.63;;;;;;;;;;5039840;28;25095;-74
2023/06/03 07:07:42;;;;;;;9.40;2.53;;;;;;;;;;5037200;28;25058;-71
2023/06/03 07:10:08;;;;;;;5.68;2.30;;;;;;;;;;5039312;28;25055;-74
2023/06/03 07:12:37;;;;;;;7.18;2.33;;;;;;;;;;5040880;28;25150;-72
2023/06/03 07:15:03;;;;;;;6.93;2.60;;;;;;;;;;5039709;28;25142;-73
2023/06/03 07:17:29;;;;;;;7.88;2.35;;;;;;;;;;5037111;28;25054;-73
2023/06/03 07:19:55;;;;;;;3.75;2.08;;;;;;;;;;5038791;28;25077;-72
2023/06/03 07:22:21;;;;;;;8.57;1.92;;;;;;;;;;5035673;28;25052;-72
2023/06/03 07:24:46;;;;;;;3.88;2.03;;;;;;;;;;5037415;28;25041;-75
2023/06/03 07:27:16;;;;;;;4.28;2.20;;;;;;;;;;5036173;28;25129;-74
2023/06/03 07:29:42;;;;;;;10.27;1.92;;;;;;;;;;5038278;28;25064;-72
2023/06/03 07:32:08;;;;;;;4.13;1.70;;;;;;;;;;5036036;28;25069;-72
2023/06/03 07:34:36;;;;;;;4.70;1.83;;;;;;;;;;5038384;28;25146;-74
2023/06/03 07:37:03;;;;;;;4.13;2.15;;;;;;;;;;5038582;28;25072;-73
2023/06/03 07:39:29;;;;;;;3.35;2.03;;;;;;;;;;5036200;28;25157;-73
2023/06/03 07:41:55;;;;;;;4.57;1.92;;;;;;;;;;5034771;28;25107;-74
2023/06/03 07:44:34;;;;;;;3.08;2.03;;;;;;;;;;5036380;28;25072;-70
2023/06/03 07:47:00;;;;;;;4.05;1.70;;;;;;;;;;5038262;28;25058;-70
2023/06/03 07:49:26;;;;;;;5.72;1.77;;;;;;;;;;5037141;28;25098;-70
2023/06/03 07:51:53;;;;;;;4.15;1.70;;;;;;;;;;5043341;28;25098;-70
2023/06/03 07:54:20;;;;;;;7.88;1.88;;;;;;;;;;5041871;28;25049;-70
2023/06/03 07:56:46;;;;;;;6.18;1.67;;;;;;;;;;5037625;28;25056;-70
2023/06/03 07:59:13;;;;;;;5.10;1.83;;;;;;;;;;5035641;28;25053;-70
2023/06/03 08:01:40;;;;;;;6.82;1.88;;;;;;;;;;5030617;28;25071;-74
2023/06/03 08:04:18;;;;;;;4.60;1.90;;;;;;;;;;5036586;28;25076;-73
2023/06/03 08:06:45;;;;;;;2.28;1.70;;;;;;;;;;5040134;28;25088;-74
2023/06/03 08:09:27;;;;;;;1.90;1.38;;;;;;;;;;5040959;28;25056;-73
2023/06/03 08:11:54;;;;;;;4.05;2.05;;;;;;;;;;5046514;28;26189;-75
2023/06/03 08:14:21;;;;;;;4.10;1.40;;;;;;;;;;5040877;28;25065;-73
2023/06/03 08:16:47;;;;;;;5.82;1.88;;;;;;;;;;5043766;28;25154;-74
2023/06/03 08:19:14;;;;;;;4.95;1.60;;;;;;;;;;5026123;28;25142;-75
2023/06/03 08:21:41;;;;;;;3.15;1.70;;;;;;;;;;5040570;28;25097;-73
2023/06/03 08:24:09;;;;;;;4.20;1.85;;;;;;;;;;5038343;28;25139;-75
2023/06/03 08:26:36;;;;;;;4.50;1.38;;;;;;;;;;5040431;28;25051;-73
2023/06/03 08:29:02;;;;;;;3.25;1.33;;;;;;;;;;5039798;28;25043;-73
2023/06/03 08:31:29;;;;;;;2.97;1.33;;;;;;;;;;5038450;28;25072;-73
2023/06/03 08:33:55;;;;;;;4.72;1.42;;;;;;;;;;5028603;28;25093;-74
2023/06/03 08:36:21;;;;;;;2.05;1.25;;;;;;;;;;5041763;28;25081;-75
2023/06/03 08:38:47;;;;;;;8.13;1.70;;;;;;;;;;5057702;28;25043;-75
2023/06/03 08:41:13;;;;;;;3.35;1.42;;;;;;;;;;5062432;28;25121;-72
2023/06/03 08:43:41;;;;;;;4.38;1.67;;;;;;;;;;5047393;28;25051;-72
2023/06/03 08:46:13;;;;;;;3.22;1.10;;;;;;;;;;5040639;28;25173;-73
2023/06/03 08:48:57;;;;;;;2.03;1.17;;;;;;;;;;5053077;28;25061;-72
2023/06/03 08:51:23;;;;;;;1.83;1.10;;;;;;;;;;5056804;28;25087;-75
2023/06/03 08:53:51;;;;;;;7.68;1.40;;;;;;;;;;5059662;28;25136;-72
2023/06/03 08:56:18;;;;;;;3.95;1.60;;;;;;;;;;5050332;28;25066;-72
2023/06/03 08:58:47;;;;;;;3.17;1.13;;;;;;;;;;5049794;28;25072;-73
2023/06/03 09:01:14;;;;;;;3.83;1.20;;;;;;;;;;5039944;28;25053;-72
2023/06/03 09:03:41;;;;;;;7.68;1.35;;;;;;;;;;5035331;28;25063;-73
2023/06/03 09:06:07;;;;;;;1.77;1.35;;;;;;;;;;5038782;28;25172;-76
2023/06/03 09:08:36;;;;;;;3.42;1.38;;;;;;;;;;5035962;28;25066;-73
2023/06/03 09:11:03;;;;;;;2.33;1.17;;;;;;;;;;5035376;28;25165;-74
2023/06/03 09:13:30;;;;;;;1.77;1.02;;;;;;;;;;5033186;28;25057;-74
2023/06/03 09:15:56;;;;;;;4.97;1.40;;;;;;;;;;5035595;28;25056;-73
2023/06/03 09:18:22;;;;;;;3.58;1.25;;;;;;;;;;5020941;28;25152;-75
2023/06/03 09:20:48;;;;;;;4.20;1.17;;;;;;;;;;5038501;28;25076;-74
2023/06/03 09:23:15;;;;;;;5.07;1.75;;;;;;;;;;5049309;28;25154;-72
2023/06/03 09:25:43;;;;;;;3.42;1.13;;;;;;;;;;5045588;28;25042;-72
2023/06/03 09:28:09;;;;;;;2.97;1.25;;;;;;;;;;5032690;28;25156;-73
2023/06/03 09:30:35;;;;;;;1.90;1.10;;;;;;;;;;5036708;28;25077;-72
2023/06/03 09:33:01;;;;;;;4.60;1.40;;;;;;;;;;5036539;28;25096;-74
2023/06/03 09:35:27;;;;;;;3.13;1.20;;;;;;;;;;5036945;28;25062;-74
2023/06/03 09:38:04;;;;;;;2.92;1.17;;;;;;;;;;5048168;28;25069;-74
2023/06/03 09:40:30;;;;;;;2.33;1.00;;;;;;;;;;5023296;28;25060;-72
2023/06/03 09:42:56;;;;;;;2.78;1.25;;;;;;;;;;5036423;28;25103;-72
2023/06/03 09:45:25;;;;;;;3.67;1.30;;;;;;;;;;5037096;28;25111;-71
2023/06/03 09:47:52;;;;;;;3.88;1.08;;;;;;;;;;5053037;28;25069;-72
2023/06/03 09:50:18;;;;;;;3.13;1.08;;;;;;;;;;5043265;28;25108;-71
2023/06/03 09:52:44;;;;;;;1.20;1.05;;;;;;;;;;5037957;28;25136;-71
2023/06/03 09:55:10;;;;;;;5.20;1.42;;;;;;;;;;5039582;28;25065;-73
2023/06/03 09:57:37;;;;;;;2.15;1.13;;;;;;;;;;5055080;28;25071;-72
2023/06/03 10:00:07;;;;;;;3.17;1.50;;;;;;;;;;5054686;28;25079;-71
2023/06/03 10:02:43;;;;;;;4.43;1.48;;;;;;;;;;5059132;28;25090;-73
2023/06/03 10:05:25;;;;;;;2.85;1.10;;;;;;;;;;5052843;28;25072;-70
2023/06/03 10:07:51;;;;;;;;;;;;;;;;;;5038492;28;25064;-74
2023/06/03 10:10:17;;;;;;;3.58;1.30;;;;;;;;;;5030730;28;25105;-72
2023/06/03 10:12:45;;;;;;;1.65;1.30;;;;;;;;;;5032743;28;25099;-73
2023/06/03 10:15:11;;;;;;;5.57;1.25;;;;;;;;;;5033570;28;25077;-73
2023/06/03 10:17:45;;;;;;;2.58;1.13;;;;;;;;;;5031790;28;25066;-72
2023/06/03 10:20:11;;;;;;;2.10;1.20;;;;;;;;;;5033683;28;25087;-71
2023/06/03 10:22:39;;;;;;;2.58;1.65;;;;;;;;;;5033661;28;25095;-72
2023/06/03 10:25:07;;;;;;;4.82;1.00;;;;;;;;;;5032373;28;25095;-75
2023/06/03 10:27:33;;;;;;;2.17;0.93;;;;;;;;;;5030491;28;25079;-75
2023/06/03 10:30:00;;;;;;;3.17;1.13;;;;;;;;;;5032089;28;25099;-71
2023/06/03 10:32:26;;;;;;;4.63;1.20;;;;;;;;;;5030497;28;25122;-75
2023/06/03 10:34:53;;;;;;;2.53;1.30;;;;;;;;;;5037161;28;25071;-74
2023/06/03 10:37:19;;;;;;;1.63;1.00;;;;;;;;;;5036895;28;25062;-71
2023/06/03 10:39:45;;;;;;;5.60;1.23;;;;;;;;;;5039975;28;25081;-72
2023/06/03 10:42:12;;;;;;;2.17;1.00;;;;;;;;;;5042889;28;25063;-72
2023/06/03 10:44:38;;;;;;;3.97;0.90;;;;;;;;;;5040372;28;25079;-73
2023/06/03 10:47:12;;;;;;;7.05;1.67;;;;;;;;;;5040585;28;25058;-73
2023/06/03 10:49:40;;;;;;;2.42;1.40;;;;;;;;;;5040091;28;25074;-72
2023/06/03 10:52:09;;;;;;;2.67;1.10;;;;;;;;;;5042503;28;25142;-76
2023/06/03 10:54:58;;;;;;;1.63;0.93;;;;;;;;;;5046420;28;25064;-71
2023/06/03 10:57:26;;;;;;;1.90;1.02;;;;;;;;;;5035654;28;25087;-73
2023/06/03 10:59:52;;;;;;;0.80;0.80;;;;;;;;;;5044805;28;25111;-74
2023/06/03 11:02:18;;;;;;;4.78;1.30;;;;;;;;;;5041575;28;25104;-72
2023/06/03 11:04:44;;;;;;;1.58;0.95;;;;;;;;;;5045414;28;25097;-72
2023/06/03 11:07:28;;;;;;;2.60;1.20;;;;;;;;;;5043742;28;25152;-72
2023/06/03 11:09:54;;;;;;;1.35;0.95;;;;;;;;;;5047381;28;25099;-72
2023/06/03 11:12:20;;;;;;;7.25;1.20;;;;;;;;;;5052461;28;25065;-71
2023/06/03 11:14:48;;;;;;;3.35;1.02;;;;;;;;;;5049772;28;25096;-73
2023/06/03 11:17:15;;;;;;;2.70;0.95;;;;;;;;;;5046785;28;25054;-73
2023/06/03 11:19:44;;;;;;;2.17;1.15;;;;;;;;;;5042866;28;25170;-73
2023/06/03 11:22:11;;;;;;;3.92;1.38;;;;;;;;;;5039848;28;25150;-72
2023/06/03 11:24:41;;;;;;;1.00;0.80;;;;;;;;;;5040334;28;25069;-71
2023/06/03 11:27:10;;;;;;;1.75;1.20;;;;;;;;;;5041172;28;25092;-73
2023/06/03 11:29:45;;;;;;;3.30;0.90;;;;;;;;;;5036314;28;25054;-72
2023/06/03 11:32:12;;;;;;;2.25;2.00;;;;;;;;;;5051301;28;25052;-73
2023/06/03 11:34:38;;;;;;;4.10;1.02;;;;;;;;;;5047640;28;25179;-72
2023/06/03 11:37:04;;;;;;;2.17;1.13;;;;;;;;;;5027982;28;25092;-72
2023/06/03 11:39:50;;;;;;;1.27;0.80;;;;;;;;;;5042691;28;25052;-73
2023/06/03 11:42:16;;;;;;;1.15;0.95;;;;;;;;;;5041648;28;25083;-73
2023/06/03 11:44:42;;;;;;;2.63;1.02;;;;;;;;;;5057682;28;25138;-73
2023/06/03 11:47:08;;;;;;;2.00;0.90;;;;;;;;;;5056101;28;25089;-72
2023/06/03 11:49:35;;;;;;;3.20;0.90;;;;;;;;;;5061263;28;25061;-70
2023/06/03 11:52:02;;;;;;;2.92;0.90;;;;;;;;;;5061038;28;25090;-72
2023/06/03 11:54:28;;;;;;;1.13;0.93;;;;;;;;;;5058581;28;25080;-72
2023/06/03 11:56:55;;;;;;;3.10;1.02;;;;;;;;;;5060405;28;25050;-73
2023/06/03 11:59:42;;;;;;;1.02;0.80;;;;;;;;;;5057327;28;25090;-74
2023/06/03 12:02:08;;;;;;;1.75;1.00;;;;;;;;;;5058515;28;25077;-74
2023/06/03 12:04:34;;;;;;;1.55;1.05;;;;;;;;;;5059977;28;25073;-73
2023/06/03 12:07:01;;;;;;;2.63;0.98;;;;;;;;;;5058485;28;25062;-75
2023/06/03 12:09:28;;;;;;;2.88;1.00;;;;;;;;;;5056884;28;25067;-72
2023/06/03 12:11:59;;;;;;;2.85;0.73;;;;;;;;;;5058195;28;25054;-72
2023/06/03 12:14:25;;;;;;;4.60;1.00;;;;;;;;;;5056121;28;25059;-73
2023/06/03 12:16:51;;;;;;;4.47;1.00;;;;;;;;;;5057993;28;25093;-73
2023/06/03 12:19:18;;;;;;;0.95;0.90;;;;;;;;;;5056534;28;25059;-70
2023/06/03 12:21:44;;;;;;;2.22;1.20;;;;;;;;;;5047252;28;25087;-71
2023/06/03 12:24:13;;;;;;;2.13;1.00;;;;;;;;;;5039531;28;25155;-74
2023/06/03 12:26:41;;;;;;;6.18;1.00;;;;;;;;;;5035711;28;25100;-71
2023/06/03 12:29:08;;;;;;;1.83;0.90;;;;;;;;;;5032393;28;25046;-73
2023/06/03 12:31:35;;;;;;;2.25;0.80;;;;;;;;;;5035671;28;25053;-73
2023/06/03 12:34:01;;;;;;;2.92;0.70;;;;;;;;;;5035690;28;25156;-71
2023/06/03 12:36:49;;;;;;;1.27;0.80;;;;;;;;;;5036860;28;25088;-75
2023/06/03 12:39:15;;;;;;;6.32;1.00;;;;;;;;;;5036022;28;25144;-72
2023/06/03 12:41:52;;;;;;;3.85;1.00;;;;;;;;;;5036523;28;25079;-72
2023/06/03 12:44:18;;;;;;;3.67;1.05;;;;;;;;;;5034775;28;25068;-72
2023/06/03 12:46:44;;;;;;;2.83;1.00;;;;;;;;;;5036921;28;25104;-74
2023/06/03 12:49:13;;;;;;;8.40;1.65;;;;;;;;;;5023661;28;25075;-71
2023/06/03 12:51:39;;;;;;;2.10;0.80;;;;;;;;;;5041474;28;25158;-72
2023/06/03 12:54:05;;;;;;;3.50;0.70;;;;;;;;;;5055338;28;25241;-72
2023/06/03 12:56:32;;;;;;;1.90;0.80;;;;;;;;;;5054686;28;25072;-73
2023/06/03 12:58:58;;;;;;;0.75;0.75;;;;;;;;;;5056273;28;25068;-74
2023/06/03 13:01:24;;;;;;;1.23;0.90;;;;;;;;;;5055153;28;25070;-73
2023/06/03 13:03:56;;;;;;;4.15;0.70;;;;;;;;;;5053407;28;25072;-71
2023/06/03 13:06:23;;;;;;;4.35;1.20;;;;;;;;;;5053838;28;25158;-73
2023/06/03 13:08:51;;;;;;;2.08;0.80;;;;;;;;;;5052839;28;25131;-73
2023/06/03 13:11:17;;;;;;;1.48;0.57;;;;;;;;;;5052508;28;25151;-71
2023/06/03 13:13:43;;;;;;;4.05;0.88;;;;;;;;;;5053625;28;25123;-72
2023/06/03 13:16:09;;;;;;;1.15;0.65;;;;;;;;;;5054976;28;25059;-72
2023/06/03 13:18:36;;;;;;;2.80;0.88;;;;;;;;;;5053891;28;25154;-73
2023/06/03 13:21:02;;;;;;;3.20;0.70;;;;;;;;;;5054075;28;25061;-73
2023/06/03 13:23:29;;;;;;;0.57;0.57;;;;;;;;;;5056444;28;25051;-72
2023/06/03 13:25:55;;;;;;;0.80;0.80;;;;;;;;;;5059769;28;25134;-73
2023/06/03 13:28:21;;;;;;;2.28;1.10;;;;;;;;;;5054926;28;25462;-72
2023/06/03 13:30:49;;;;;;;0.55;0.52;;;;;;;;;;5053528;28;25072;-72
2023/06/03 13:33:15;;;;;;;1.02;0.73;;;;;;;;;;5057128;28;25054;-72
2023/06/03 13:35:41;;;;;;;0.50;0.50;;;;;;;;;;5055106;28;25147;-72
2023/06/03 13:38:07;;;;;;;0.50;0.43;;;;;;;;;;5053117;28;25062;-72
2023/06/03 13:40:33;;;;;;;5.15;0.90;;;;;;;;;;5050343;28;25154;-71
2023/06/03 13:43:01;;;;;;;2.15;0.88;;;;;;;;;;5042030;28;25061;-72
2023/06/03 13:45:27;;;;;;;1.27;0.95;;;;;;;;;;5039191;28;25057;-72
2023/06/03 13:47:53;;;;;;;1.08;0.70;;;;;;;;;;5039004;28;25075;-71
2023/06/03 13:50:19;;;;;;;2.38;0.70;;;;;;;;;;5036486;28;25060;-72
2023/06/03 13:52:45;;;;;;;2.55;0.80;;;;;;;;;;5033926;28;25063;-73
2023/06/03 13:55:11;;;;;;;0.68;0.68;;;;;;;;;;5021218;28;25074;-72
2023/06/03 13:57:37;;;;;;;3.55;1.52;;;;;;;;;;5034454;28;25078;-72
2023/06/03 14:00:03;;;;;;;3.30;0.70;;;;;;;;;;5034783;28;25065;-73
2023/06/03 14:02:29;;;;;;;0.80;0.75;;;;;;;;;;5033092;28;25063;-72
2023/06/03 14:04:55;;;;;;;2.10;0.63;;;;;;;;;;5033613;28;25085;-76
2023/06/03 14:07:21;;;;;;;1.70;0.80;;;;;;;;;;5039952;28;25097;-71
2023/06/03 14:09:47;;;;;;;1.95;0.60;;;;;;;;;;5052878;28;25073;-71
2023/06/03 14:12:13;;;;;;;0.95;0.77;;;;;;;;;;5036396;28;25097;-72
2023/06/03 14:14:39;;;;;;;1.17;0.68;;;;;;;;;;5051957;28;25111;-72
2023/06/03 14:17:07;;;;;;;2.03;1.10;;;;;;;;;;5052917;28;25103;-72
2023/06/03 14:19:33;;;;;;;3.65;0.63;;;;;;;;;;5052390;28;25153;-71
2023/06/03 14:21:59;;;;;;;1.45;1.20;;;;;;;;;;5053692;28;25082;-72
2023/06/03 14:24:25;;;;;;;2.22;0.60;;;;;;;;;;5038086;28;25121;-73
2023/06/03 14:26:51;;;;;;;1.83;0.88;;;;;;;;;;5053326;28;25104;-71
2023/06/03 14:29:17;;;;;;;3.03;0.57;;;;;;;;;;5053788;28;25053;-71
2023/06/03 14:31:43;;;;;;;4.63;0.82;;;;;;;;;;5054518;28;25154;-72
2023/06/03 14:34:09;;;;;;;1.77;1.13;;;;;;;;;;5042828;28;25055;-73
2023/06/03 14:36:36;;;;;;;2.25;0.95;;;;;;;;;;5053111;28;25086;-71
2023/06/03 14:39:02;;;;;;;1.50;0.73;;;;;;;;;;5053142;28;25096;-72
2023/06/03 14:41:30;;;;;;;1.63;0.70;;;;;;;;;;5053862;28;25063;-72